createdAt,value
2022-09-15T00:00:30.929Z,13.11
2022-09-15T00:02:57.606Z,13.07
2022-09-15T00:05:24.202Z,12.99
2022-09-15T00:07:50.737Z,12.99
2022-09-15T00:10:17.625Z,12.96
2022-09-15T00:12:44.493Z,12.95
2022-09-15T00:15:14.560Z,12.92
2022-09-15T00:17:42.502Z,12.87
2022-09-15T00:20:10.339Z,12.85
2022-09-15T00:22:36.828Z,12.85
2022-09-15T00:25:03.910Z,12.83
2022-09-15T00:27:33.266Z,12.80
2022-09-15T00:29:59.837Z,12.75
2022-09-15T00:32:27.033Z,12.70
2022-09-15T00:34:53.658Z,12.69
2022-09-15T00:37:20.692Z,12.65
2022-09-15T00:39:47.924Z,12.63
2022-09-15T00:42:24.512Z,12.59
2022-09-15T00:44:58.560Z,12.57
2022-09-15T00:47:38.732Z,12.53
2022-09-15T00:50:15.192Z,12.51
2022-09-15T00:52:52.728Z,12.47
2022-09-15T00:55:31.216Z,12.45
2022-09-15T00:58:02.599Z,12.40
2022-09-15T01:00:31.217Z,12.39
2022-09-15T01:02:58.975Z,12.39
2022-09-15T01:05:39.582Z,12.34
2022-09-15T01:08:15.622Z,12.35
2022-09-15T01:10:42.289Z,12.34
2022-09-15T01:13:12.406Z,12.33
2022-09-15T01:16:03.925Z,12.32
2022-09-15T01:18:51.753Z,12.31
2022-09-15T01:21:18.269Z,12.28
2022-09-15T01:24:22.867Z,12.29
2022-09-15T01:27:30.532Z,12.23
2022-09-15T01:29:54.782Z,12.22
2022-09-15T01:32:48.200Z,12.18
2022-09-15T01:35:25.594Z,12.14
2022-09-15T01:38:06.100Z,12.13
2022-09-15T01:40:39.678Z,12.11
2022-09-15T01:43:09.812Z,12.14
2022-09-15T01:45:42.137Z,12.12
2022-09-15T01:48:09.382Z,12.12
2022-09-15T01:50:42.745Z,12.11
2022-09-15T01:53:15.376Z,12.11
2022-09-15T01:55:47.258Z,12.08
2022-09-15T01:58:13.974Z,12.08
2022-09-15T02:00:45.882Z,12.08
2022-09-15T02:03:25.158Z,12.07
2022-09-15T02:06:01.949Z,12.02
2022-09-15T02:08:33.474Z,12.01
2022-09-15T02:11:07.643Z,12.02
2022-09-15T02:13:48.273Z,11.99
2022-09-15T02:16:20.028Z,11.96
2022-09-15T02:19:04.337Z,11.97
2022-09-15T02:21:42.772Z,11.97
2022-09-15T02:24:16.422Z,11.95
2022-09-15T02:26:43.160Z,11.93
2022-09-15T02:29:13.058Z,11.92
2022-09-15T02:31:42.165Z,11.85
2022-09-15T02:34:15.653Z,11.84
2022-09-15T02:36:42.989Z,11.82
2022-09-15T02:39:14.762Z,11.77
2022-09-15T02:41:41.899Z,11.74
2022-09-15T02:44:09.988Z,11.71
2022-09-15T02:46:36.866Z,11.69
2022-09-15T02:49:03.592Z,11.67
2022-09-15T02:51:30.992Z,11.66
2022-09-15T02:53:57.757Z,11.65
2022-09-15T02:56:24.315Z,11.63
2022-09-15T02:58:51.048Z,11.62
2022-09-15T03:01:31.745Z,11.64
2022-09-15T03:03:59.067Z,11.65
2022-09-15T03:06:27.848Z,11.63
2022-09-15T03:08:58.726Z,11.62
2022-09-15T03:11:27.639Z,11.56
2022-09-15T03:13:59.819Z,11.58
2022-09-15T03:16:29.898Z,11.56
2022-09-15T03:18:59.257Z,11.54
2022-09-15T03:21:27.621Z,11.51
2022-09-15T03:23:54.153Z,11.50
2022-09-15T03:26:20.789Z,11.46
2022-09-15T03:28:47.284Z,11.41
2022-09-15T03:31:13.852Z,11.39
2022-09-15T03:33:40.533Z,11.35
2022-09-15T03:36:07.620Z,11.32
2022-09-15T03:38:34.176Z,11.30
2022-09-15T03:41:09.732Z,11.31
2022-09-15T03:43:37.221Z,11.30
2022-09-15T03:46:05.987Z,11.30
2022-09-15T03:48:35.014Z,11.27
2022-09-15T03:51:03.438Z,11.24
2022-09-15T03:53:34.526Z,11.25
2022-09-15T03:56:22.005Z,11.23
2022-09-15T03:58:49.974Z,11.21
2022-09-15T04:01:21.915Z,11.20
2022-09-15T04:03:51.110Z,11.24
2022-09-15T04:06:22.321Z,11.22
2022-09-15T04:08:53.172Z,11.22
2022-09-15T04:11:21.578Z,11.22
2022-09-15T04:13:48.810Z,11.21
2022-09-15T04:16:18.970Z,11.22
2022-09-15T04:18:46.400Z,11.23
2022-09-15T04:21:15.894Z,11.21
2022-09-15T04:23:43.483Z,11.22
2022-09-15T04:26:31.173Z,11.21
2022-09-15T04:29:03.082Z,11.23
2022-09-15T04:31:33.995Z,11.27
2022-09-15T04:34:00.643Z,11.30
2022-09-15T04:36:32.318Z,11.33
2022-09-15T04:38:58.955Z,11.34
2022-09-15T04:41:29.357Z,11.34
2022-09-15T04:43:58.222Z,11.35
2022-09-15T04:46:25.698Z,11.38
2022-09-15T04:48:52.832Z,11.42
2022-09-15T04:51:20.897Z,11.42
2022-09-15T04:53:48.355Z,11.43
2022-09-15T04:56:20.133Z,11.41
2022-09-15T04:59:03.518Z,11.42
2022-09-15T05:01:32.311Z,11.43
2022-09-15T05:04:01.370Z,11.44
2022-09-15T05:06:28.249Z,11.47
2022-09-15T05:08:57.689Z,11.48
2022-09-15T05:11:25.290Z,11.50
2022-09-15T05:13:52.071Z,11.48
2022-09-15T05:16:23.867Z,11.51
2022-09-15T05:18:51.988Z,11.53
2022-09-15T05:21:20.688Z,11.55
2022-09-15T05:23:47.944Z,11.57
2022-09-15T05:26:18.124Z,11.56
2022-09-15T05:28:44.892Z,11.58
2022-09-15T05:31:20.163Z,11.58
2022-09-15T05:33:49.205Z,11.63
2022-09-15T05:36:20.191Z,11.63
2022-09-15T05:38:46.833Z,11.68
2022-09-15T05:41:16.929Z,11.68
2022-09-15T05:43:45.273Z,11.76
2022-09-15T05:46:12.823Z,11.78
2022-09-15T05:48:39.449Z,11.81
2022-09-15T05:51:06.184Z,11.83
2022-09-15T05:53:34.828Z,11.87
2022-09-15T05:56:07.228Z,11.87
2022-09-15T05:58:34.171Z,11.88
2022-09-15T06:01:12.052Z,11.95
2022-09-15T06:03:38.816Z,11.95
2022-09-15T06:06:06.564Z,11.98
2022-09-15T06:08:41.405Z,12.00
2022-09-15T06:11:12.621Z,12.02
2022-09-15T06:13:40.155Z,12.07
2022-09-15T06:16:25.220Z,12.09
2022-09-15T06:18:53.896Z,12.11
2022-09-15T06:21:23.685Z,12.14
2022-09-15T06:23:59.476Z,12.15
2022-09-15T06:26:27.030Z,12.17
2022-09-15T06:28:57.025Z,12.21
2022-09-15T06:31:25.279Z,12.22
2022-09-15T06:33:55.852Z,12.27
2022-09-15T06:36:24.992Z,12.30
2022-09-15T06:38:52.424Z,12.33
2022-09-15T06:41:19.140Z,12.36
2022-09-15T06:43:46.456Z,12.38
2022-09-15T06:46:15.995Z,12.43
2022-09-15T06:48:45.234Z,12.46
2022-09-15T06:51:17.110Z,12.47
2022-09-15T06:53:45.770Z,12.50
2022-09-15T06:56:17.756Z,12.53
2022-09-15T06:58:45.368Z,12.60
2022-09-15T07:01:14.343Z,12.59
2022-09-15T07:03:44.044Z,12.62
2022-09-15T07:06:14.815Z,12.64
2022-09-15T07:08:41.811Z,12.71
2022-09-15T07:11:10.052Z,12.76
2022-09-15T07:13:37.206Z,12.81
2022-09-15T07:16:06.462Z,12.85
2022-09-15T07:18:33.545Z,12.92
2022-09-15T07:21:02.216Z,12.95
2022-09-15T07:23:28.792Z,13.01
2022-09-15T07:26:07.257Z,13.07
2022-09-15T07:28:34.210Z,13.07
2022-09-15T07:31:01.021Z,13.06
2022-09-15T07:33:27.705Z,13.10
2022-09-15T07:35:54.261Z,13.11
2022-09-15T07:38:20.777Z,13.15
2022-09-15T07:40:48.999Z,13.17
2022-09-15T07:43:16.138Z,13.20
2022-09-15T07:45:42.990Z,13.21
2022-09-15T07:48:09.605Z,13.18
2022-09-15T07:50:36.281Z,13.22
2022-09-15T07:53:03.499Z,13.27
2022-09-15T07:55:31.285Z,13.28
2022-09-15T07:57:59.344Z,13.38
2022-09-15T08:00:26.891Z,13.43
2022-09-15T08:02:54.142Z,13.46
2022-09-15T08:05:20.745Z,13.49
2022-09-15T08:07:47.371Z,13.54
2022-09-15T08:10:14.007Z,13.61
2022-09-15T08:12:40.840Z,13.67
2022-09-15T08:15:07.801Z,13.71
2022-09-15T08:17:34.974Z,13.80
2022-09-15T08:20:02.240Z,13.87
2022-09-15T08:22:28.949Z,13.91
2022-09-15T08:24:55.551Z,13.97
2022-09-15T08:27:22.084Z,14.05
2022-09-15T08:29:49.200Z,14.15
2022-09-15T08:32:17.175Z,14.25
2022-09-15T08:34:43.795Z,14.29
2022-09-15T08:37:10.339Z,14.31
2022-09-15T08:39:36.888Z,14.42
2022-09-15T08:42:04.741Z,14.47
2022-09-15T08:44:49.572Z,14.56
2022-09-15T08:47:27.869Z,14.66
2022-09-15T08:50:23.231Z,14.72
2022-09-15T08:53:00.734Z,14.90
2022-09-15T08:55:55.648Z,15.10
2022-09-15T08:58:28.349Z,15.29
2022-09-15T09:01:02.453Z,15.52
2022-09-15T09:03:28.985Z,15.77
2022-09-15T09:06:14.908Z,16.03
2022-09-15T09:09:02.623Z,16.19
2022-09-15T09:12:05.552Z,16.26
2022-09-15T09:15:19.799Z,16.30
2022-09-15T09:18:08.336Z,16.39
2022-09-15T09:21:22.640Z,16.44
2022-09-15T09:24:15.873Z,16.38
2022-09-15T09:26:46.340Z,16.30
2022-09-15T09:29:18.436Z,16.27
2022-09-15T09:31:50.582Z,16.29
2022-09-15T09:34:33.689Z,16.27
2022-09-15T09:37:09.088Z,16.21
2022-09-15T09:39:35.866Z,16.12
2022-09-15T09:42:03.810Z,15.99
2022-09-15T09:44:33.461Z,16.17
2022-09-15T09:47:01.510Z,16.35
2022-09-15T09:49:35.102Z,16.44
2022-09-15T09:52:03.579Z,16.55
2022-09-15T09:54:34.289Z,16.87
2022-09-15T09:57:12.698Z,16.93
2022-09-15T09:59:46.464Z,17.09
2022-09-15T10:02:48.378Z,17.03
2022-09-15T10:05:20.019Z,17.17
2022-09-15T10:07:47.702Z,17.19
2022-09-15T10:10:23.219Z,17.04
2022-09-15T10:12:54.704Z,17.04
2022-09-15T10:15:31.881Z,16.87
2022-09-15T10:17:58.621Z,16.72
2022-09-15T10:20:32.908Z,16.89
2022-09-15T10:23:23.586Z,16.99
2022-09-15T10:26:00.335Z,17.15
2022-09-15T10:28:27.895Z,17.19
2022-09-15T10:31:16.181Z,16.99
2022-09-15T10:33:47.810Z,16.95
2022-09-15T10:36:20.363Z,17.03
2022-09-15T10:39:02.486Z,17.09
2022-09-15T10:41:31.714Z,17.10
2022-09-15T10:44:14.368Z,17.19
2022-09-15T10:47:14.604Z,17.08
2022-09-15T10:49:53.109Z,17.10
2022-09-15T10:52:51.132Z,17.43
2022-09-15T10:55:24.817Z,17.70
2022-09-15T10:58:24.918Z,17.83
2022-09-15T11:01:00.930Z,17.85
2022-09-15T11:03:55.457Z,17.88
2022-09-15T11:06:47.187Z,17.80
2022-09-15T11:09:14.042Z,17.72
2022-09-15T11:11:49.536Z,17.81
2022-09-15T11:14:29.614Z,17.81
2022-09-15T11:17:12.909Z,17.64
2022-09-15T11:20:13.465Z,17.57
2022-09-15T11:22:52.886Z,17.47
2022-09-15T11:25:26.532Z,17.07
2022-09-15T11:28:02.073Z,16.87
2022-09-15T11:30:38.106Z,16.80
2022-09-15T11:33:11.114Z,16.63
2022-09-15T11:35:37.833Z,16.51
2022-09-15T11:38:34.427Z,16.44
2022-09-15T11:41:20.497Z,16.35
2022-09-15T11:43:57.194Z,16.32
2022-09-15T11:46:34.505Z,16.29
2022-09-15T11:49:13.914Z,16.33
2022-09-15T11:51:50.683Z,16.38
2022-09-15T11:54:26.063Z,16.39
2022-09-15T11:56:55.349Z,16.49
2022-09-15T11:59:37.217Z,16.47
2022-09-15T12:02:22.341Z,16.47
2022-09-15T12:05:14.123Z,16.53
2022-09-15T12:07:48.653Z,16.54
2022-09-15T12:10:26.017Z,16.57
2022-09-15T12:12:53.937Z,16.60
2022-09-15T12:15:27.255Z,16.63
2022-09-15T12:18:34.604Z,16.68
2022-09-15T12:21:34.063Z,16.55
2022-09-15T12:24:13.679Z,16.55
2022-09-15T12:26:43.197Z,16.59
2022-09-15T12:29:21.895Z,16.57
2022-09-15T12:31:48.674Z,16.69
2022-09-15T12:34:24.744Z,16.78
2022-09-15T12:37:06.488Z,16.85
2022-09-15T12:39:39.871Z,16.99
2022-09-15T12:42:33.500Z,17.05
2022-09-15T12:45:19.151Z,17.17
2022-09-15T12:47:54.646Z,17.23
2022-09-15T12:50:38.002Z,17.27
2022-09-15T12:53:20.849Z,17.07
2022-09-15T12:56:00.711Z,17.03
2022-09-15T12:58:40.745Z,16.88
2022-09-15T13:01:22.743Z,16.85
2022-09-15T13:03:50.844Z,16.83
2022-09-15T13:06:34.942Z,16.80
2022-09-15T13:09:01.610Z,16.77
2022-09-15T13:11:39.170Z,16.76
2022-09-15T13:14:10.733Z,16.78
2022-09-15T13:16:43.673Z,16.68
2022-09-15T13:19:41.625Z,16.76
2022-09-15T13:22:11.556Z,16.75
2022-09-15T13:24:49.901Z,16.73
2022-09-15T13:27:21.051Z,16.69
2022-09-15T13:30:26.144Z,16.70
2022-09-15T13:35:02.271Z,16.91
2022-09-15T13:39:58.560Z,17.11
2022-09-15T13:42:40.656Z,17.07
2022-09-15T13:45:20.940Z,17.09
2022-09-15T13:47:56.744Z,17.09
2022-09-15T13:50:31.127Z,17.10
2022-09-15T13:53:25.505Z,17.13
2022-09-15T13:55:55.522Z,17.23
2022-09-15T14:01:12.933Z,17.50
2022-09-15T14:03:50.377Z,17.53
2022-09-15T14:06:27.535Z,17.63
2022-09-15T14:08:58.639Z,17.59
2022-09-15T14:11:31.554Z,17.48
2022-09-15T14:14:01.456Z,17.39
2022-09-15T14:16:33.894Z,17.24
2022-09-15T14:19:23.634Z,17.21
2022-09-15T14:21:53.778Z,17.25
2022-09-15T14:24:30.525Z,17.29
2022-09-15T14:27:00.689Z,17.30
2022-09-15T14:29:27.768Z,17.22
2022-09-15T14:32:00.676Z,17.38
2022-09-15T14:34:31.560Z,17.37
2022-09-15T14:37:06.896Z,17.25
2022-09-15T14:39:37.253Z,17.27
2022-09-15T14:42:30.335Z,17.31
2022-09-15T14:48:06.481Z,17.44
2022-09-15T14:50:33.768Z,17.47
2022-09-15T14:53:18.113Z,17.40
2022-09-15T14:56:01.261Z,17.42
2022-09-15T14:58:42.386Z,17.35
2022-09-15T15:01:22.380Z,17.24
2022-09-15T15:04:10.121Z,17.24
2022-09-15T15:06:48.704Z,17.14
2022-09-15T15:09:25.988Z,17.12
2022-09-15T15:11:58.232Z,17.06
2022-09-15T15:14:25.414Z,17.10
2022-09-15T15:17:02.419Z,16.98
2022-09-15T15:19:39.487Z,16.86
2022-09-15T15:22:23.077Z,16.57
2022-09-15T15:24:52.497Z,16.57
2022-09-15T15:27:54.446Z,16.38
2022-09-15T15:30:30.795Z,16.35
2022-09-15T15:33:03.533Z,16.28
2022-09-15T15:35:31.926Z,16.24
2022-09-15T15:38:18.124Z,16.19
2022-09-15T15:40:45.762Z,16.13
2022-09-15T15:43:12.496Z,16.13
2022-09-15T15:45:49.903Z,16.03
2022-09-15T15:48:16.638Z,16.04
2022-09-15T15:50:43.432Z,16.04
2022-09-15T15:53:10.044Z,16.03
2022-09-15T15:55:41.936Z,16.01
2022-09-15T15:58:10.753Z,15.98
2022-09-15T16:00:44.139Z,15.97
2022-09-15T16:03:11.781Z,15.97
2022-09-15T16:05:40.785Z,15.94
2022-09-15T16:08:14.387Z,15.95
2022-09-15T16:10:42.684Z,15.85
2022-09-15T16:13:13.315Z,15.84
2022-09-15T16:15:39.953Z,15.80
2022-09-15T16:18:06.676Z,15.73
2022-09-15T16:20:33.422Z,15.73
2022-09-15T16:23:00.034Z,15.73
2022-09-15T16:25:41.714Z,15.61
2022-09-15T16:28:08.686Z,15.61
2022-09-15T16:30:35.401Z,15.61
2022-09-15T16:33:02.112Z,15.58
2022-09-15T16:35:40.119Z,15.57
2022-09-15T16:38:07.876Z,15.52
2022-09-15T16:40:36.873Z,15.53
2022-09-15T16:43:08.746Z,15.49
2022-09-15T16:45:40.541Z,15.55
2022-09-15T16:48:09.450Z,15.60
2022-09-15T16:50:39.899Z,15.56
2022-09-15T16:53:14.258Z,15.56
2022-09-15T16:55:45.942Z,15.56
2022-09-15T16:58:14.473Z,15.51
2022-09-15T17:00:42.081Z,15.51
2022-09-15T17:03:10.308Z,15.49
2022-09-15T17:05:48.294Z,15.47
2022-09-15T17:08:16.784Z,15.44
2022-09-15T17:10:43.821Z,15.45
2022-09-15T17:13:17.446Z,15.40
2022-09-15T17:15:45.741Z,15.37
2022-09-15T17:18:15.269Z,15.35
2022-09-15T17:20:43.209Z,15.32
2022-09-15T17:23:17.762Z,15.29
2022-09-15T17:25:51.958Z,15.23
2022-09-15T17:28:21.103Z,15.19
2022-09-15T17:30:50.179Z,15.16
2022-09-15T17:33:18.754Z,15.12
2022-09-15T17:35:45.690Z,15.09
2022-09-15T17:38:12.542Z,15.07
2022-09-15T17:40:39.643Z,15.05
2022-09-15T17:43:13.915Z,15.04
2022-09-15T17:45:41.000Z,14.99
2022-09-15T17:48:08.308Z,14.98
2022-09-15T17:50:36.638Z,14.97
2022-09-15T17:53:09.597Z,14.93
2022-09-15T17:55:39.480Z,14.90
2022-09-15T17:58:09.447Z,14.90
2022-09-15T18:00:41.711Z,14.88
2022-09-15T18:03:20.997Z,14.82
2022-09-15T18:05:49.360Z,14.77
2022-09-15T18:08:16.841Z,14.76
2022-09-15T18:10:44.058Z,14.79
2022-09-15T18:13:15.029Z,14.82
2022-09-15T18:15:42.853Z,14.82
2022-09-15T18:18:16.393Z,14.76
2022-09-15T18:20:43.413Z,14.70
2022-09-15T18:23:16.506Z,14.69
2022-09-15T18:25:44.590Z,14.52
2022-09-15T18:28:14.278Z,14.45
2022-09-15T18:30:43.094Z,14.46
2022-09-15T18:33:28.153Z,14.40
2022-09-15T18:35:56.797Z,14.35
2022-09-15T18:38:24.077Z,14.31
2022-09-15T18:40:56.167Z,14.35
2022-09-15T18:43:25.139Z,14.29
2022-09-15T18:45:53.234Z,14.26
2022-09-15T18:48:20.357Z,14.21
2022-09-15T18:50:47.393Z,14.18
2022-09-15T18:53:15.890Z,14.17
2022-09-15T18:55:43.697Z,14.15
2022-09-15T18:58:11.373Z,14.14
2022-09-15T19:00:38.645Z,14.07
2022-09-15T19:03:06.829Z,14.01
2022-09-15T19:05:34.137Z,14.02
2022-09-15T19:08:01.758Z,14.00
2022-09-15T19:10:29.166Z,13.97
2022-09-15T19:12:55.795Z,13.92
2022-09-15T19:15:23.979Z,13.90
2022-09-15T19:17:50.968Z,13.85
2022-09-15T19:20:17.977Z,13.83
2022-09-15T19:22:44.887Z,13.83
2022-09-15T19:25:12.140Z,13.82
2022-09-15T19:27:39.704Z,13.80
2022-09-15T19:30:09.847Z,13.84
2022-09-15T19:32:38.253Z,13.82
2022-09-15T19:35:05.937Z,13.77
2022-09-15T19:37:36.928Z,13.73
2022-09-15T19:40:08.165Z,13.68
2022-09-15T19:42:35.622Z,13.68
2022-09-15T19:45:02.228Z,13.64
2022-09-15T19:47:29.253Z,13.61
2022-09-15T19:49:55.830Z,13.58
2022-09-15T19:52:22.577Z,13.56
2022-09-15T19:54:49.205Z,13.56
2022-09-15T19:57:16.493Z,13.49
2022-09-15T19:59:44.586Z,13.47
2022-09-15T20:02:11.952Z,13.46
2022-09-15T20:04:41.783Z,13.38
2022-09-15T20:07:08.350Z,13.32
2022-09-15T20:09:35.611Z,13.33
2022-09-15T20:12:05.561Z,13.30
2022-09-15T20:14:32.396Z,13.26
2022-09-15T20:17:01.770Z,13.23
2022-09-15T20:19:29.324Z,13.23
2022-09-15T20:21:56.014Z,13.17
2022-09-15T20:24:23.796Z,13.09
2022-09-15T20:26:51.272Z,13.05
2022-09-15T20:29:18.388Z,13.06
2022-09-15T20:31:44.993Z,13.03
2022-09-15T20:34:11.951Z,12.99
2022-09-15T20:36:39.487Z,12.94
2022-09-15T20:39:13.123Z,12.91
2022-09-15T20:41:44.754Z,12.89
2022-09-15T20:44:12.061Z,12.85
2022-09-15T20:46:39.271Z,12.88
2022-09-15T20:49:06.525Z,12.84
2022-09-15T20:51:36.935Z,12.85
2022-09-15T20:54:04.835Z,12.83
2022-09-15T20:56:34.759Z,12.81
2022-09-15T20:59:02.801Z,12.80
2022-09-15T21:01:34.050Z,12.79
2022-09-15T21:04:06.965Z,12.80
2022-09-15T21:06:34.015Z,12.83
2022-09-15T21:09:00.979Z,12.80
2022-09-15T21:11:30.076Z,12.73
2022-09-15T21:13:57.686Z,12.72
2022-09-15T21:16:26.900Z,12.76
2022-09-15T21:18:54.248Z,12.75
2022-09-15T21:21:27.331Z,12.74
2022-09-15T21:24:01.082Z,12.70
2022-09-15T21:26:35.365Z,12.64
2022-09-15T21:29:02.648Z,12.63
2022-09-15T21:31:32.128Z,12.62
2022-09-15T21:33:59.668Z,12.58
2022-09-15T21:36:28.563Z,12.63
2022-09-15T21:38:57.066Z,12.61
2022-09-15T21:41:26.004Z,12.60
2022-09-15T21:43:54.915Z,12.54
2022-09-15T21:46:24.345Z,12.57
2022-09-15T21:48:51.679Z,12.58
2022-09-15T21:51:24.329Z,12.56
2022-09-15T21:53:56.700Z,12.56
2022-09-15T21:56:24.435Z,12.57
2022-09-15T21:58:50.981Z,12.53
2022-09-15T22:01:19.993Z,12.52
2022-09-15T22:03:58.389Z,12.48
2022-09-15T22:06:31.789Z,12.45
2022-09-15T22:09:01.741Z,12.39
2022-09-15T22:11:28.667Z,12.38
2022-09-15T22:13:55.706Z,12.36
2022-09-15T22:16:24.349Z,12.35
2022-09-15T22:18:51.928Z,12.30
2022-09-15T22:21:21.205Z,12.29
2022-09-15T22:23:49.473Z,12.26
2022-09-15T22:26:19.995Z,12.20
2022-09-15T22:28:47.146Z,12.18
2022-09-15T22:31:16.718Z,12.13
2022-09-15T22:33:43.476Z,12.12
2022-09-15T22:36:11.616Z,12.11
2022-09-15T22:38:38.652Z,12.08
2022-09-15T22:41:14.309Z,12.09
2022-09-15T22:43:42.225Z,12.00
2022-09-15T22:46:09.303Z,11.95
2022-09-15T22:48:38.594Z,11.96
2022-09-15T22:51:11.191Z,11.92
2022-09-15T22:53:38.159Z,11.95
2022-09-15T22:56:19.614Z,11.91
2022-09-15T22:58:48.361Z,11.87
2022-09-15T23:01:20.538Z,11.85
2022-09-15T23:04:05.378Z,11.80
2022-09-15T23:06:34.310Z,11.77
2022-09-15T23:09:04.534Z,11.70
2022-09-15T23:11:33.201Z,11.67
2022-09-15T23:14:00.249Z,11.68
2022-09-15T23:16:27.301Z,11.62
2022-09-15T23:18:54.993Z,11.57
2022-09-15T23:21:21.831Z,11.54
2022-09-15T23:23:49.218Z,11.55
2022-09-15T23:26:22.871Z,11.48
2022-09-15T23:28:49.802Z,11.44
2022-09-15T23:31:17.365Z,11.41
2022-09-15T23:33:44.101Z,11.37
2022-09-15T23:36:19.251Z,11.39
2022-09-15T23:38:46.802Z,11.34
2022-09-15T23:41:15.378Z,11.38
2022-09-15T23:43:42.010Z,11.29
2022-09-15T23:46:09.428Z,11.28
2022-09-15T23:48:36.737Z,11.28
2022-09-15T23:51:04.009Z,11.25
2022-09-15T23:53:30.679Z,11.23
2022-09-15T23:55:57.271Z,11.23
2022-09-15T23:58:24.611Z,11.23
